Terminal Aerodrome Forecast
Issued by NWS Lake Charles, LA

Home | Current Version | Previous Version | Text Only | Print | Product List | Glossary On
Versions: 1 2 3 4 5 6 7 8 9 10 11 12 13 14 15 16 17 18 19 20
000
FTUS44 KLCH 030500
TAFLFT
TAF
KLFT 030520Z 0306/0406 00000KT P6SM FEW015 OVC250
     FM031600 VRB04KT P6SM VCSH SCT030 PROB30 0318/0323 3SM SHRA
      BKN035
     FM040100 00000KT P6SM SCT040 BKN200=

USA.gov is the U.S. government's official web portal to all federal, state and local government web resources and services.